sensor_id;sensor_type;location;lat;lon;timestamp;temperature;humidity
65038;DHT22;51605;47.040;15.294;2022-12-07T00:02:24;21.50;55.40
65038;DHT22;51605;47.040;15.294;2022-12-07T00:04:50;21.50;55.40
65038;DHT22;51605;47.040;15.294;2022-12-07T00:07:15;21.50;55.40
65038;DHT22;51605;47.040;15.294;2022-12-07T00:09:41;21.50;55.40
65038;DHT22;51605;47.040;15.294;2022-12-07T00:12:06;21.50;56.30
65038;DHT22;51605;47.040;15.294;2022-12-07T00:14:32;21.50;55.30
65038;DHT22;51605;47.040;15.294;2022-12-07T00:16:58;21.50;55.40
65038;DHT22;51605;47.040;15.294;2022-12-07T00:19:23;21.50;55.30
65038;DHT22;51605;47.040;15.294;2022-12-07T00:21:48;21.50;55.30
65038;DHT22;51605;47.040;15.294;2022-12-07T00:24:14;21.50;55.30
65038;DHT22;51605;47.040;15.294;2022-12-07T00:26:40;21.50;55.40
65038;DHT22;51605;47.040;15.294;2022-12-07T00:29:07;21.40;55.40
65038;DHT22;51605;47.040;15.294;2022-12-07T00:31:35;21.40;55.30
65038;DHT22;51605;47.040;15.294;2022-12-07T00:34:04;21.50;55.40
65038;DHT22;51605;47.040;15.294;2022-12-07T00:36:30;21.40;55.30
65038;DHT22;51605;47.040;15.294;2022-12-07T00:38:57;21.40;55.30
65038;DHT22;51605;47.040;15.294;2022-12-07T00:41:23;21.40;55.40
65038;DHT22;51605;47.040;15.294;2022-12-07T00:43:49;21.50;55.40
65038;DHT22;51605;47.040;15.294;2022-12-07T00:46:15;21.50;55.30
65038;DHT22;51605;47.040;15.294;2022-12-07T00:48:41;21.50;55.30
65038;DHT22;51605;47.040;15.294;2022-12-07T00:51:07;21.50;55.30
65038;DHT22;51605;47.040;15.294;2022-12-07T00:53:36;21.50;55.30
65038;DHT22;51605;47.040;15.294;2022-12-07T00:56:21;21.50;55.30
65038;DHT22;51605;47.040;15.294;2022-12-07T00:58:57;21.50;55.30
65038;DHT22;51605;47.040;15.294;2022-12-07T01:01:23;21.40;55.20
65038;DHT22;51605;47.040;15.294;2022-12-07T01:03:49;21.40;55.20
65038;DHT22;51605;47.040;15.294;2022-12-07T01:06:15;21.40;55.30
65038;DHT22;51605;47.040;15.294;2022-12-07T01:08:41;21.50;55.30
65038;DHT22;51605;47.040;15.294;2022-12-07T01:11:07;21.50;55.20
65038;DHT22;51605;47.040;15.294;2022-12-07T01:13:35;21.50;55.30
65038;DHT22;51605;47.040;15.294;2022-12-07T01:16:02;21.50;55.20
65038;DHT22;51605;47.040;15.294;2022-12-07T01:18:28;21.50;55.20
65038;DHT22;51605;47.040;15.294;2022-12-07T01:20:58;21.50;55.20
65038;DHT22;51605;47.040;15.294;2022-12-07T01:23:23;21.50;55.20
65038;DHT22;51605;47.040;15.294;2022-12-07T01:25:56;21.50;55.20
65038;DHT22;51605;47.040;15.294;2022-12-07T01:28:22;21.50;55.20
65038;DHT22;51605;47.040;15.294;2022-12-07T01:33:26;21.50;55.10
65038;DHT22;51605;47.040;15.294;2022-12-07T01:35:52;21.50;55.20
65038;DHT22;51605;47.040;15.294;2022-12-07T01:38:17;21.50;55.20
65038;DHT22;51605;47.040;15.294;2022-12-07T01:40:43;21.40;55.20
65038;DHT22;51605;47.040;15.294;2022-12-07T01:43:18;21.40;55.30
65038;DHT22;51605;47.040;15.294;2022-12-07T01:45:44;21.40;55.20
65038;DHT22;51605;47.040;15.294;2022-12-07T01:48:10;21.40;55.20
65038;DHT22;51605;47.040;15.294;2022-12-07T01:50:36;21.40;55.20
65038;DHT22;51605;47.040;15.294;2022-12-07T01:53:03;21.40;55.30
65038;DHT22;51605;47.040;15.294;2022-12-07T01:55:30;21.50;55.30
65038;DHT22;51605;47.040;15.294;2022-12-07T01:57:55;21.40;55.30
65038;DHT22;51605;47.040;15.294;2022-12-07T02:00:22;21.40;55.20
65038;DHT22;51605;47.040;15.294;2022-12-07T02:02:55;21.40;55.30
65038;DHT22;51605;47.040;15.294;2022-12-07T02:05:22;21.40;55.30
65038;DHT22;51605;47.040;15.294;2022-12-07T02:07:49;21.40;55.20
65038;DHT22;51605;47.040;15.294;2022-12-07T02:10:23;21.40;55.20
65038;DHT22;51605;47.040;15.294;2022-12-07T02:12:51;21.40;56.20
65038;DHT22;51605;47.040;15.294;2022-12-07T02:15:18;21.40;55.20
65038;DHT22;51605;47.040;15.294;2022-12-07T02:20:21;21.40;55.10
65038;DHT22;51605;47.040;15.294;2022-12-07T02:28:17;21.50;55.20
65038;DHT22;51605;47.040;15.294;2022-12-07T02:30:44;21.50;55.10
65038;DHT22;51605;47.040;15.294;2022-12-07T02:33:14;21.50;55.10
65038;DHT22;51605;47.040;15.294;2022-12-07T02:38:18;21.50;55.10
65038;DHT22;51605;47.040;15.294;2022-12-07T02:41:02;21.50;55.00
65038;DHT22;51605;47.040;15.294;2022-12-07T02:43:31;21.50;55.00
65038;DHT22;51605;47.040;15.294;2022-12-07T02:46:01;21.50;55.00
65038;DHT22;51605;47.040;15.294;2022-12-07T02:48:28;21.50;55.10
65038;DHT22;51605;47.040;15.294;2022-12-07T02:50:54;21.50;55.20
65038;DHT22;51605;47.040;15.294;2022-12-07T02:55:54;21.50;55.10
65038;DHT22;51605;47.040;15.294;2022-12-07T02:58:23;21.50;55.10
65038;DHT22;51605;47.040;15.294;2022-12-07T03:01:15;21.40;55.10
65038;DHT22;51605;47.040;15.294;2022-12-07T03:03:42;21.40;55.10
65038;DHT22;51605;47.040;15.294;2022-12-07T03:06:28;21.50;55.10
65038;DHT22;51605;47.040;15.294;2022-12-07T03:08:57;21.50;55.10
65038;DHT22;51605;47.040;15.294;2022-12-07T03:14:05;21.50;55.10
65038;DHT22;51605;47.040;15.294;2022-12-07T03:16:39;21.40;55.00
65038;DHT22;51605;47.040;15.294;2022-12-07T03:19:10;21.50;55.10
65038;DHT22;51605;47.040;15.294;2022-12-07T03:21:38;21.40;55.10
65038;DHT22;51605;47.040;15.294;2022-12-07T03:24:04;21.40;55.10
65038;DHT22;51605;47.040;15.294;2022-12-07T03:26:34;21.40;55.10
65038;DHT22;51605;47.040;15.294;2022-12-07T03:29:02;21.40;55.10
65038;DHT22;51605;47.040;15.294;2022-12-07T03:31:31;21.50;55.10
65038;DHT22;51605;47.040;15.294;2022-12-07T03:34:18;21.40;55.10
65038;DHT22;51605;47.040;15.294;2022-12-07T03:36:53;21.40;55.10
65038;DHT22;51605;47.040;15.294;2022-12-07T03:42:21;21.40;55.10
65038;DHT22;51605;47.040;15.294;2022-12-07T03:44:46;21.40;55.10
65038;DHT22;51605;47.040;15.294;2022-12-07T03:47:16;21.40;55.10
65038;DHT22;51605;47.040;15.294;2022-12-07T03:49:47;21.40;55.10
65038;DHT22;51605;47.040;15.294;2022-12-07T03:52:59;21.40;55.10
65038;DHT22;51605;47.040;15.294;2022-12-07T03:55:08;21.40;55.10
65038;DHT22;51605;47.040;15.294;2022-12-07T03:57:35;21.50;55.10
65038;DHT22;51605;47.040;15.294;2022-12-07T04:00:02;21.50;55.10
65038;DHT22;51605;47.040;15.294;2022-12-07T04:02:30;21.50;55.00
65038;DHT22;51605;47.040;15.294;2022-12-07T04:04:56;21.50;55.00
65038;DHT22;51605;47.040;15.294;2022-12-07T04:07:21;21.50;54.90
65038;DHT22;51605;47.040;15.294;2022-12-07T04:09:47;21.50;54.90
65038;DHT22;51605;47.040;15.294;2022-12-07T04:12:13;21.50;54.90
65038;DHT22;51605;47.040;15.294;2022-12-07T04:14:38;21.50;54.90
65038;DHT22;51605;47.040;15.294;2022-12-07T04:17:04;21.50;54.90
65038;DHT22;51605;47.040;15.294;2022-12-07T04:19:33;21.50;54.90
65038;DHT22;51605;47.040;15.294;2022-12-07T04:21:59;21.50;54.90
65038;DHT22;51605;47.040;15.294;2022-12-07T04:24:25;21.50;54.90
65038;DHT22;51605;47.040;15.294;2022-12-07T04:26:51;21.50;54.90
65038;DHT22;51605;47.040;15.294;2022-12-07T04:29:17;21.50;54.90
65038;DHT22;51605;47.040;15.294;2022-12-07T04:31:43;21.50;54.90
65038;DHT22;51605;47.040;15.294;2022-12-07T04:34:09;21.50;54.90
65038;DHT22;51605;47.040;15.294;2022-12-07T04:36:35;21.50;54.80
65038;DHT22;51605;47.040;15.294;2022-12-07T04:39:01;21.50;54.80
65038;DHT22;51605;47.040;15.294;2022-12-07T04:41:27;21.50;54.80
65038;DHT22;51605;47.040;15.294;2022-12-07T04:43:56;21.50;54.90
65038;DHT22;51605;47.040;15.294;2022-12-07T04:46:22;21.50;54.80
65038;DHT22;51605;47.040;15.294;2022-12-07T04:48:48;21.50;54.80
65038;DHT22;51605;47.040;15.294;2022-12-07T04:51:15;21.50;55.70
65038;DHT22;51605;47.040;15.294;2022-12-07T04:53:43;21.50;55.70
65038;DHT22;51605;47.040;15.294;2022-12-07T04:56:09;21.50;54.90
65038;DHT22;51605;47.040;15.294;2022-12-07T04:58:34;21.50;54.90
65038;DHT22;51605;47.040;15.294;2022-12-07T05:01:00;21.50;54.90
65038;DHT22;51605;47.040;15.294;2022-12-07T05:03:25;21.50;54.80
65038;DHT22;51605;47.040;15.294;2022-12-07T05:05:51;21.50;54.80
65038;DHT22;51605;47.040;15.294;2022-12-07T05:08:16;21.50;55.60
65038;DHT22;51605;47.040;15.294;2022-12-07T05:10:42;21.50;55.70
65038;DHT22;51605;47.040;15.294;2022-12-07T05:13:07;21.50;55.90
65038;DHT22;51605;47.040;15.294;2022-12-07T05:15:33;21.50;56.10
65038;DHT22;51605;47.040;15.294;2022-12-07T05:17:58;21.50;56.20
65038;DHT22;51605;47.040;15.294;2022-12-07T05:20:24;21.40;56.40
65038;DHT22;51605;47.040;15.294;2022-12-07T05:22:49;21.50;56.40
65038;DHT22;51605;47.040;15.294;2022-12-07T05:25:15;21.50;56.00
65038;DHT22;51605;47.040;15.294;2022-12-07T05:27:41;21.50;55.40
65038;DHT22;51605;47.040;15.294;2022-12-07T05:30:06;21.50;55.30
65038;DHT22;51605;47.040;15.294;2022-12-07T05:32:32;21.50;55.30
65038;DHT22;51605;47.040;15.294;2022-12-07T05:34:57;21.50;55.30
65038;DHT22;51605;47.040;15.294;2022-12-07T05:37:23;21.50;55.20
65038;DHT22;51605;47.040;15.294;2022-12-07T05:39:48;21.50;55.20
65038;DHT22;51605;47.040;15.294;2022-12-07T05:42:14;21.50;55.20
65038;DHT22;51605;47.040;15.294;2022-12-07T05:44:40;21.50;55.10
65038;DHT22;51605;47.040;15.294;2022-12-07T05:47:06;21.50;55.10
65038;DHT22;51605;47.040;15.294;2022-12-07T05:49:32;21.50;55.10
65038;DHT22;51605;47.040;15.294;2022-12-07T05:51:57;21.50;55.10
65038;DHT22;51605;47.040;15.294;2022-12-07T05:54:23;21.50;55.10
65038;DHT22;51605;47.040;15.294;2022-12-07T05:56:48;21.50;55.30
65038;DHT22;51605;47.040;15.294;2022-12-07T05:59:14;21.40;55.70
65038;DHT22;51605;47.040;15.294;2022-12-07T06:01:50;21.50;55.80
65038;DHT22;51605;47.040;15.294;2022-12-07T06:04:16;21.50;56.00
65038;DHT22;51605;47.040;15.294;2022-12-07T06:06:41;21.50;56.10
65038;DHT22;51605;47.040;15.294;2022-12-07T06:09:07;21.50;56.20
65038;DHT22;51605;47.040;15.294;2022-12-07T06:11:33;21.50;56.20
65038;DHT22;51605;47.040;15.294;2022-12-07T06:14:17;21.50;56.40
65038;DHT22;51605;47.040;15.294;2022-12-07T06:16:42;21.50;56.40
65038;DHT22;51605;47.040;15.294;2022-12-07T06:19:08;21.50;56.00
65038;DHT22;51605;47.040;15.294;2022-12-07T06:21:34;21.50;55.50
65038;DHT22;51605;47.040;15.294;2022-12-07T06:23:59;21.50;55.40
65038;DHT22;51605;47.040;15.294;2022-12-07T06:26:25;21.50;55.30
65038;DHT22;51605;47.040;15.294;2022-12-07T06:28:50;21.50;55.30
65038;DHT22;51605;47.040;15.294;2022-12-07T06:31:16;21.40;55.30
65038;DHT22;51605;47.040;15.294;2022-12-07T06:33:41;21.50;55.40
65038;DHT22;51605;47.040;15.294;2022-12-07T06:36:07;21.50;55.50
65038;DHT22;51605;47.040;15.294;2022-12-07T06:38:33;21.40;55.40
65038;DHT22;51605;47.040;15.294;2022-12-07T06:40:58;21.40;55.30
65038;DHT22;51605;47.040;15.294;2022-12-07T06:43:24;21.40;55.50
65038;DHT22;51605;47.040;15.294;2022-12-07T06:45:49;21.50;55.50
65038;DHT22;51605;47.040;15.294;2022-12-07T06:48:16;21.40;55.40
65038;DHT22;51605;47.040;15.294;2022-12-07T06:50:43;21.40;55.30
65038;DHT22;51605;47.040;15.294;2022-12-07T06:53:09;21.40;55.40
65038;DHT22;51605;47.040;15.294;2022-12-07T06:55:34;21.40;55.40
65038;DHT22;51605;47.040;15.294;2022-12-07T06:58:00;21.40;55.40
65038;DHT22;51605;47.040;15.294;2022-12-07T07:00:26;21.40;55.40
65038;DHT22;51605;47.040;15.294;2022-12-07T07:02:52;21.40;55.50
65038;DHT22;51605;47.040;15.294;2022-12-07T07:05:17;21.40;56.20
65038;DHT22;51605;47.040;15.294;2022-12-07T07:07:43;21.40;56.30
65038;DHT22;51605;47.040;15.294;2022-12-07T07:10:09;21.50;56.30
65038;DHT22;51605;47.040;15.294;2022-12-07T07:12:34;21.50;56.40
65038;DHT22;51605;47.040;15.294;2022-12-07T07:15:00;21.50;56.40
65038;DHT22;51605;47.040;15.294;2022-12-07T07:17:25;21.50;56.50
65038;DHT22;51605;47.040;15.294;2022-12-07T07:19:51;21.50;56.30
65038;DHT22;51605;47.040;15.294;2022-12-07T07:22:16;21.50;56.40
65038;DHT22;51605;47.040;15.294;2022-12-07T07:24:42;21.60;56.40
65038;DHT22;51605;47.040;15.294;2022-12-07T07:27:07;21.60;56.50
65038;DHT22;51605;47.040;15.294;2022-12-07T07:29:33;21.50;56.20
65038;DHT22;51605;47.040;15.294;2022-12-07T07:31:59;21.50;55.30
65038;DHT22;51605;47.040;15.294;2022-12-07T07:34:24;21.50;55.80
65038;DHT22;51605;47.040;15.294;2022-12-07T07:36:50;21.50;56.00
65038;DHT22;51605;47.040;15.294;2022-12-07T07:39:15;21.50;55.90
65038;DHT22;51605;47.040;15.294;2022-12-07T07:41:41;21.50;55.80
65038;DHT22;51605;47.040;15.294;2022-12-07T07:44:06;21.50;55.70
65038;DHT22;51605;47.040;15.294;2022-12-07T07:46:32;21.50;55.90
65038;DHT22;51605;47.040;15.294;2022-12-07T07:48:58;21.50;55.90
65038;DHT22;51605;47.040;15.294;2022-12-07T07:51:23;21.50;56.10
65038;DHT22;51605;47.040;15.294;2022-12-07T07:53:49;21.50;56.10
65038;DHT22;51605;47.040;15.294;2022-12-07T07:56:15;21.50;56.10
65038;DHT22;51605;47.040;15.294;2022-12-07T07:58:40;21.50;56.20
65038;DHT22;51605;47.040;15.294;2022-12-07T08:01:06;21.50;56.10
65038;DHT22;51605;47.040;15.294;2022-12-07T08:03:32;21.60;56.20
65038;DHT22;51605;47.040;15.294;2022-12-07T08:05:57;21.60;56.00
65038;DHT22;51605;47.040;15.294;2022-12-07T08:08:23;21.60;55.80
65038;DHT22;51605;47.040;15.294;2022-12-07T08:10:49;21.60;56.10
65038;DHT22;51605;47.040;15.294;2022-12-07T08:13:16;21.60;56.10
65038;DHT22;51605;47.040;15.294;2022-12-07T08:15:45;21.60;56.10
65038;DHT22;51605;47.040;15.294;2022-12-07T08:18:11;21.60;55.80
65038;DHT22;51605;47.040;15.294;2022-12-07T08:20:37;21.60;55.80
65038;DHT22;51605;47.040;15.294;2022-12-07T08:23:03;21.60;55.70
65038;DHT22;51605;47.040;15.294;2022-12-07T08:25:29;21.60;55.70
65038;DHT22;51605;47.040;15.294;2022-12-07T08:27:55;21.50;55.60
65038;DHT22;51605;47.040;15.294;2022-12-07T08:30:20;21.50;55.50
65038;DHT22;51605;47.040;15.294;2022-12-07T08:32:46;21.50;55.30
65038;DHT22;51605;47.040;15.294;2022-12-07T08:35:13;21.50;55.10
65038;DHT22;51605;47.040;15.294;2022-12-07T08:37:38;21.50;54.90
65038;DHT22;51605;47.040;15.294;2022-12-07T08:40:04;21.50;54.70
65038;DHT22;51605;47.040;15.294;2022-12-07T08:42:30;21.50;54.60
65038;DHT22;51605;47.040;15.294;2022-12-07T08:45:06;21.40;54.60
65038;DHT22;51605;47.040;15.294;2022-12-07T08:47:31;21.40;54.60
65038;DHT22;51605;47.040;15.294;2022-12-07T08:49:57;21.40;55.00
65038;DHT22;51605;47.040;15.294;2022-12-07T08:52:31;21.40;55.10
65038;DHT22;51605;47.040;15.294;2022-12-07T08:54:57;21.40;54.80
65038;DHT22;51605;47.040;15.294;2022-12-07T08:57:23;21.40;55.30
65038;DHT22;51605;47.040;15.294;2022-12-07T08:59:49;21.50;54.90
65038;DHT22;51605;47.040;15.294;2022-12-07T09:02:14;21.40;55.20
65038;DHT22;51605;47.040;15.294;2022-12-07T09:04:40;21.50;55.10
65038;DHT22;51605;47.040;15.294;2022-12-07T09:07:05;21.40;55.40
65038;DHT22;51605;47.040;15.294;2022-12-07T09:09:31;21.40;55.60
65038;DHT22;51605;47.040;15.294;2022-12-07T09:11:56;21.50;57.50
65038;DHT22;51605;47.040;15.294;2022-12-07T09:14:23;21.40;56.50
65038;DHT22;51605;47.040;15.294;2022-12-07T09:16:48;21.40;56.80
65038;DHT22;51605;47.040;15.294;2022-12-07T09:19:14;21.40;56.90
65038;DHT22;51605;47.040;15.294;2022-12-07T09:21:39;21.40;57.00
65038;DHT22;51605;47.040;15.294;2022-12-07T09:24:05;21.40;56.90
65038;DHT22;51605;47.040;15.294;2022-12-07T09:26:31;21.40;57.50
65038;DHT22;51605;47.040;15.294;2022-12-07T09:28:56;21.40;57.40
65038;DHT22;51605;47.040;15.294;2022-12-07T09:31:22;21.40;56.90
65038;DHT22;51605;47.040;15.294;2022-12-07T09:33:53;21.40;56.70
65038;DHT22;51605;47.040;15.294;2022-12-07T09:36:19;21.40;56.50
65038;DHT22;51605;47.040;15.294;2022-12-07T09:38:44;21.40;56.50
65038;DHT22;51605;47.040;15.294;2022-12-07T09:41:09;21.40;56.30
65038;DHT22;51605;47.040;15.294;2022-12-07T09:43:35;21.40;55.40
65038;DHT22;51605;47.040;15.294;2022-12-07T09:46:02;21.40;55.30
65038;DHT22;51605;47.040;15.294;2022-12-07T09:48:36;21.40;55.20
65038;DHT22;51605;47.040;15.294;2022-12-07T09:51:02;21.40;55.00
65038;DHT22;51605;47.040;15.294;2022-12-07T09:53:36;21.40;54.80
65038;DHT22;51605;47.040;15.294;2022-12-07T09:56:02;21.30;54.80
65038;DHT22;51605;47.040;15.294;2022-12-07T09:58:28;21.30;55.00
65038;DHT22;51605;47.040;15.294;2022-12-07T10:01:05;21.40;54.30
65038;DHT22;51605;47.040;15.294;2022-12-07T10:03:31;21.30;54.60
65038;DHT22;51605;47.040;15.294;2022-12-07T10:05:57;21.30;55.00
65038;DHT22;51605;47.040;15.294;2022-12-07T10:08:22;21.40;55.40
65038;DHT22;51605;47.040;15.294;2022-12-07T10:10:51;21.30;55.10
65038;DHT22;51605;47.040;15.294;2022-12-07T10:13:20;21.40;55.20
65038;DHT22;51605;47.040;15.294;2022-12-07T10:15:47;21.40;55.10
65038;DHT22;51605;47.040;15.294;2022-12-07T10:21:00;21.40;55.00
65038;DHT22;51605;47.040;15.294;2022-12-07T10:23:25;21.40;54.90
65038;DHT22;51605;47.040;15.294;2022-12-07T10:25:51;21.40;54.90
65038;DHT22;51605;47.040;15.294;2022-12-07T10:28:20;21.40;54.40
65038;DHT22;51605;47.040;15.294;2022-12-07T10:30:47;21.40;54.30
65038;DHT22;51605;47.040;15.294;2022-12-07T10:35:57;21.40;54.30
65038;DHT22;51605;47.040;15.294;2022-12-07T10:38:22;21.40;54.10
65038;DHT22;51605;47.040;15.294;2022-12-07T10:40:48;21.40;54.40
65038;DHT22;51605;47.040;15.294;2022-12-07T10:43:27;21.40;54.30
65038;DHT22;51605;47.040;15.294;2022-12-07T10:48:43;21.40;54.10
65038;DHT22;51605;47.040;15.294;2022-12-07T10:51:35;21.40;54.70
65038;DHT22;51605;47.040;15.294;2022-12-07T10:56:34;21.40;54.80
65038;DHT22;51605;47.040;15.294;2022-12-07T11:01:56;21.40;54.90
65038;DHT22;51605;47.040;15.294;2022-12-07T11:09:57;21.40;52.90
65038;DHT22;51605;47.040;15.294;2022-12-07T11:15:12;21.40;52.80
65038;DHT22;51605;47.040;15.294;2022-12-07T11:17:48;21.40;52.60
65038;DHT22;51605;47.040;15.294;2022-12-07T11:30:50;21.40;52.50
65038;DHT22;51605;47.040;15.294;2022-12-07T11:33:22;21.40;53.70
65038;DHT22;51605;47.040;15.294;2022-12-07T11:38:19;21.40;54.20
65038;DHT22;51605;47.040;15.294;2022-12-07T11:40:50;21.40;54.20
65038;DHT22;51605;47.040;15.294;2022-12-07T11:43:28;21.40;54.20
65038;DHT22;51605;47.040;15.294;2022-12-07T11:45:59;21.50;54.30
65038;DHT22;51605;47.040;15.294;2022-12-07T11:48:33;21.50;54.30
65038;DHT22;51605;47.040;15.294;2022-12-07T11:50:59;21.50;54.20
65038;DHT22;51605;47.040;15.294;2022-12-07T11:53:33;21.40;53.30
65038;DHT22;51605;47.040;15.294;2022-12-07T12:06:24;21.40;54.00
65038;DHT22;51605;47.040;15.294;2022-12-07T12:20:04;21.40;53.20
65038;DHT22;51605;47.040;15.294;2022-12-07T12:22:42;21.40;53.20
65038;DHT22;51605;47.040;15.294;2022-12-07T12:25:25;21.40;53.70
65038;DHT22;51605;47.040;15.294;2022-12-07T12:27:51;21.40;53.90
65038;DHT22;51605;47.040;15.294;2022-12-07T12:30:37;21.40;54.30
65038;DHT22;51605;47.040;15.294;2022-12-07T12:33:04;21.50;54.60
65038;DHT22;51605;47.040;15.294;2022-12-07T12:40:41;21.40;54.80
65038;DHT22;51605;47.040;15.294;2022-12-07T12:43:38;21.40;54.90
65038;DHT22;51605;47.040;15.294;2022-12-07T12:46:22;21.50;54.90
65038;DHT22;51605;47.040;15.294;2022-12-07T12:48:38;21.40;54.90
65038;DHT22;51605;47.040;15.294;2022-12-07T12:51:35;21.50;55.00
65038;DHT22;51605;47.040;15.294;2022-12-07T12:53:49;21.50;55.10
65038;DHT22;51605;47.040;15.294;2022-12-07T12:56:20;21.50;55.10
65038;DHT22;51605;47.040;15.294;2022-12-07T12:58:49;21.50;55.10
65038;DHT22;51605;47.040;15.294;2022-12-07T13:01:47;21.50;55.20
65038;DHT22;51605;47.040;15.294;2022-12-07T13:06:44;21.50;55.10
65038;DHT22;51605;47.040;15.294;2022-12-07T13:09:23;21.50;55.40
65038;DHT22;51605;47.040;15.294;2022-12-07T13:11:49;21.50;54.80
65038;DHT22;51605;47.040;15.294;2022-12-07T13:17:11;21.40;55.10
65038;DHT22;51605;47.040;15.294;2022-12-07T13:22:51;21.50;55.40
65038;DHT22;51605;47.040;15.294;2022-12-07T13:25:09;21.50;55.50
65038;DHT22;51605;47.040;15.294;2022-12-07T13:27:37;21.50;55.60
65038;DHT22;51605;47.040;15.294;2022-12-07T13:30:03;21.50;56.30
65038;DHT22;51605;47.040;15.294;2022-12-07T13:32:32;21.50;55.30
65038;DHT22;51605;47.040;15.294;2022-12-07T13:34:58;21.50;55.30
65038;DHT22;51605;47.040;15.294;2022-12-07T13:37:27;21.50;55.00
65038;DHT22;51605;47.040;15.294;2022-12-07T13:44:44;21.40;54.30
65038;DHT22;51605;47.040;15.294;2022-12-07T13:47:15;21.40;54.10
65038;DHT22;51605;47.040;15.294;2022-12-07T13:49:46;21.40;54.70
65038;DHT22;51605;47.040;15.294;2022-12-07T13:52:14;21.40;54.10
65038;DHT22;51605;47.040;15.294;2022-12-07T13:54:48;21.40;54.80
65038;DHT22;51605;47.040;15.294;2022-12-07T13:57:14;21.40;55.00
65038;DHT22;51605;47.040;15.294;2022-12-07T13:59:40;21.40;54.40
65038;DHT22;51605;47.040;15.294;2022-12-07T14:02:23;21.40;54.50
65038;DHT22;51605;47.040;15.294;2022-12-07T14:04:50;21.40;54.40
65038;DHT22;51605;47.040;15.294;2022-12-07T14:07:21;21.40;54.40
65038;DHT22;51605;47.040;15.294;2022-12-07T14:12:38;21.40;54.70
65038;DHT22;51605;47.040;15.294;2022-12-07T14:15:15;21.40;54.90
65038;DHT22;51605;47.040;15.294;2022-12-07T14:17:51;21.40;54.50
65038;DHT22;51605;47.040;15.294;2022-12-07T14:23:02;21.40;54.30
65038;DHT22;51605;47.040;15.294;2022-12-07T14:25:44;21.40;54.30
65038;DHT22;51605;47.040;15.294;2022-12-07T14:28:10;21.40;54.40
65038;DHT22;51605;47.040;15.294;2022-12-07T14:30:49;21.40;54.30
65038;DHT22;51605;47.040;15.294;2022-12-07T14:33:14;21.40;54.30
65038;DHT22;51605;47.040;15.294;2022-12-07T14:35:40;21.40;54.30
65038;DHT22;51605;47.040;15.294;2022-12-07T14:38:05;21.40;54.70
65038;DHT22;51605;47.040;15.294;2022-12-07T14:40:31;21.40;54.70
65038;DHT22;51605;47.040;15.294;2022-12-07T14:42:59;21.40;54.90
65038;DHT22;51605;47.040;15.294;2022-12-07T14:45:26;21.30;55.00
65038;DHT22;51605;47.040;15.294;2022-12-07T14:47:51;21.30;55.00
65038;DHT22;51605;47.040;15.294;2022-12-07T14:50:17;21.30;54.70
65038;DHT22;51605;47.040;15.294;2022-12-07T14:52:46;21.30;54.60
65038;DHT22;51605;47.040;15.294;2022-12-07T14:55:25;21.30;54.60
65038;DHT22;51605;47.040;15.294;2022-12-07T14:57:51;21.40;54.60
65038;DHT22;51605;47.040;15.294;2022-12-07T15:00:17;21.40;54.50
65038;DHT22;51605;47.040;15.294;2022-12-07T15:02:44;21.40;54.50
65038;DHT22;51605;47.040;15.294;2022-12-07T15:05:10;21.40;54.50
65038;DHT22;51605;47.040;15.294;2022-12-07T15:07:35;21.40;54.70
65038;DHT22;51605;47.040;15.294;2022-12-07T15:10:01;21.40;54.70
65038;DHT22;51605;47.040;15.294;2022-12-07T15:12:26;21.40;54.80
65038;DHT22;51605;47.040;15.294;2022-12-07T15:14:52;21.40;54.70
65038;DHT22;51605;47.040;15.294;2022-12-07T15:17:17;21.40;54.60
65038;DHT22;51605;47.040;15.294;2022-12-07T15:19:43;21.30;54.70
65038;DHT22;51605;47.040;15.294;2022-12-07T15:22:08;21.40;54.70
65038;DHT22;51605;47.040;15.294;2022-12-07T15:24:36;21.40;54.80
65038;DHT22;51605;47.040;15.294;2022-12-07T15:27:02;21.40;54.80
65038;DHT22;51605;47.040;15.294;2022-12-07T15:29:28;21.40;54.70
65038;DHT22;51605;47.040;15.294;2022-12-07T15:31:53;21.40;54.80
65038;DHT22;51605;47.040;15.294;2022-12-07T15:34:19;21.40;54.90
65038;DHT22;51605;47.040;15.294;2022-12-07T15:36:44;21.40;54.90
65038;DHT22;51605;47.040;15.294;2022-12-07T15:39:10;21.30;54.90
65038;DHT22;51605;47.040;15.294;2022-12-07T15:41:35;21.40;54.70
65038;DHT22;51605;47.040;15.294;2022-12-07T15:44:01;21.40;54.80
65038;DHT22;51605;47.040;15.294;2022-12-07T15:46:45;21.40;54.80
65038;DHT22;51605;47.040;15.294;2022-12-07T15:49:12;21.40;54.80
65038;DHT22;51605;47.040;15.294;2022-12-07T15:51:38;21.40;54.80
65038;DHT22;51605;47.040;15.294;2022-12-07T15:54:03;21.40;54.80
65038;DHT22;51605;47.040;15.294;2022-12-07T15:56:29;21.40;54.80
65038;DHT22;51605;47.040;15.294;2022-12-07T15:58:55;21.40;54.80
65038;DHT22;51605;47.040;15.294;2022-12-07T16:01:21;21.40;54.90
65038;DHT22;51605;47.040;15.294;2022-12-07T16:03:46;21.40;54.90
65038;DHT22;51605;47.040;15.294;2022-12-07T16:06:15;21.30;55.00
65038;DHT22;51605;47.040;15.294;2022-12-07T16:08:44;21.40;55.10
65038;DHT22;51605;47.040;15.294;2022-12-07T16:11:09;21.30;54.90
65038;DHT22;51605;47.040;15.294;2022-12-07T16:13:35;21.40;55.00
65038;DHT22;51605;47.040;15.294;2022-12-07T16:16:05;21.40;54.90
65038;DHT22;51605;47.040;15.294;2022-12-07T16:18:30;21.40;54.90
65038;DHT22;51605;47.040;15.294;2022-12-07T16:20:56;21.40;55.00
65038;DHT22;51605;47.040;15.294;2022-12-07T16:23:22;21.40;55.00
65038;DHT22;51605;47.040;15.294;2022-12-07T16:25:47;21.40;54.90
65038;DHT22;51605;47.040;15.294;2022-12-07T16:28:13;21.40;55.00
65038;DHT22;51605;47.040;15.294;2022-12-07T16:30:38;21.40;55.10
65038;DHT22;51605;47.040;15.294;2022-12-07T16:33:04;21.40;55.20
65038;DHT22;51605;47.040;15.294;2022-12-07T16:35:29;21.30;55.30
65038;DHT22;51605;47.040;15.294;2022-12-07T16:37:55;21.30;55.20
65038;DHT22;51605;47.040;15.294;2022-12-07T16:40:20;21.30;54.50
65038;DHT22;51605;47.040;15.294;2022-12-07T16:42:46;21.30;54.20
65038;DHT22;51605;47.040;15.294;2022-12-07T16:45:11;21.30;54.10
65038;DHT22;51605;47.040;15.294;2022-12-07T16:47:37;21.20;54.60
65038;DHT22;51605;47.040;15.294;2022-12-07T16:50:03;21.20;53.30
65038;DHT22;51605;47.040;15.294;2022-12-07T16:52:29;21.20;53.10
65038;DHT22;51605;47.040;15.294;2022-12-07T16:54:55;21.20;52.90
65038;DHT22;51605;47.040;15.294;2022-12-07T16:57:20;21.30;52.90
65038;DHT22;51605;47.040;15.294;2022-12-07T16:59:46;21.20;53.80
65038;DHT22;51605;47.040;15.294;2022-12-07T17:02:11;21.20;54.10